sensor_id;sensor_type;location;lat;lon;timestamp;P1;durP1;ratioP1;P2;durP2;ratioP2
54125;SDS011;40360;52.992;6.796;2023-07-09T00:01:07;14.27;;;10.45;;
54125;SDS011;40360;52.992;6.796;2023-07-09T00:03:42;11.93;;;9.98;;
54125;SDS011;40360;52.992;6.796;2023-07-09T00:06:08;13.93;;;10.00;;
54125;SDS011;40360;52.992;6.796;2023-07-09T00:08:35;11.77;;;10.32;;
54125;SDS011;40360;52.992;6.796;2023-07-09T00:11:03;11.73;;;10.52;;
54125;SDS011;40360;52.992;6.796;2023-07-09T00:13:29;12.63;;;11.02;;
54125;SDS011;40360;52.992;6.796;2023-07-09T00:15:57;11.90;;;10.40;;
54125;SDS011;40360;52.992;6.796;2023-07-09T00:18:25;12.20;;;10.60;;
54125;SDS011;40360;52.992;6.796;2023-07-09T00:20:51;16.92;;;11.35;;
54125;SDS011;40360;52.992;6.796;2023-07-09T00:23:17;12.35;;;10.07;;
54125;SDS011;40360;52.992;6.796;2023-07-09T00:25:45;11.23;;;9.82;;
54125;SDS011;40360;52.992;6.796;2023-07-09T00:28:16;12.43;;;9.43;;
54125;SDS011;40360;52.992;6.796;2023-07-09T00:30:46;12.35;;;9.85;;
54125;SDS011;40360;52.992;6.796;2023-07-09T00:33:14;10.43;;;9.02;;
54125;SDS011;40360;52.992;6.796;2023-07-09T00:35:44;13.10;;;9.98;;
54125;SDS011;40360;52.992;6.796;2023-07-09T00:38:18;10.68;;;9.18;;
54125;SDS011;40360;52.992;6.796;2023-07-09T00:40:58;12.82;;;9.65;;
54125;SDS011;40360;52.992;6.796;2023-07-09T00:49:02;10.45;;;8.73;;
54125;SDS011;40360;52.992;6.796;2023-07-09T00:51:30;10.27;;;8.85;;
54125;SDS011;40360;52.992;6.796;2023-07-09T00:54:01;9.93;;;8.93;;
54125;SDS011;40360;52.992;6.796;2023-07-09T00:56:36;12.43;;;8.52;;
54125;SDS011;40360;52.992;6.796;2023-07-09T00:59:05;11.95;;;8.55;;
54125;SDS011;40360;52.992;6.796;2023-07-09T01:01:34;9.73;;;8.63;;
54125;SDS011;40360;52.992;6.796;2023-07-09T01:04:00;10.70;;;8.27;;
54125;SDS011;40360;52.992;6.796;2023-07-09T01:06:31;9.82;;;8.80;;
54125;SDS011;40360;52.992;6.796;2023-07-09T01:09:00;10.80;;;8.55;;
54125;SDS011;40360;52.992;6.796;2023-07-09T01:11:28;10.02;;;8.50;;
54125;SDS011;40360;52.992;6.796;2023-07-09T01:13:55;10.68;;;8.38;;
54125;SDS011;40360;52.992;6.796;2023-07-09T01:16:25;10.82;;;8.93;;
54125;SDS011;40360;52.992;6.796;2023-07-09T01:18:55;10.23;;;9.13;;
54125;SDS011;40360;52.992;6.796;2023-07-09T01:21:21;11.73;;;8.82;;
54125;SDS011;40360;52.992;6.796;2023-07-09T01:23:52;12.27;;;9.20;;
54125;SDS011;40360;52.992;6.796;2023-07-09T01:26:21;14.80;;;9.80;;
54125;SDS011;40360;52.992;6.796;2023-07-09T01:28:50;16.92;;;9.73;;
54125;SDS011;40360;52.992;6.796;2023-07-09T01:31:16;9.35;;;8.45;;
54125;SDS011;40360;52.992;6.796;2023-07-09T01:33:42;13.23;;;9.43;;
54125;SDS011;40360;52.992;6.796;2023-07-09T01:36:11;13.20;;;8.73;;
54125;SDS011;40360;52.992;6.796;2023-07-09T01:38:39;11.88;;;9.15;;
54125;SDS011;40360;52.992;6.796;2023-07-09T01:41:06;11.65;;;9.15;;
54125;SDS011;40360;52.992;6.796;2023-07-09T01:43:32;9.35;;;7.50;;
54125;SDS011;40360;52.992;6.796;2023-07-09T01:45:58;10.25;;;9.23;;
54125;SDS011;40360;52.992;6.796;2023-07-09T01:48:24;11.93;;;8.82;;
54125;SDS011;40360;52.992;6.796;2023-07-09T01:50:51;11.82;;;8.75;;
54125;SDS011;40360;52.992;6.796;2023-07-09T01:53:19;11.43;;;8.30;;
54125;SDS011;40360;52.992;6.796;2023-07-09T01:55:48;11.27;;;9.48;;
54125;SDS011;40360;52.992;6.796;2023-07-09T01:58:15;15.05;;;9.23;;
54125;SDS011;40360;52.992;6.796;2023-07-09T02:00:42;9.75;;;8.75;;
54125;SDS011;40360;52.992;6.796;2023-07-09T02:03:10;9.35;;;8.38;;
54125;SDS011;40360;52.992;6.796;2023-07-09T02:05:36;11.40;;;9.88;;
54125;SDS011;40360;52.992;6.796;2023-07-09T02:08:02;11.18;;;8.73;;
54125;SDS011;40360;52.992;6.796;2023-07-09T02:10:29;11.10;;;8.55;;
54125;SDS011;40360;52.992;6.796;2023-07-09T02:12:54;11.35;;;8.90;;
54125;SDS011;40360;52.992;6.796;2023-07-09T02:15:20;10.85;;;8.88;;
54125;SDS011;40360;52.992;6.796;2023-07-09T02:17:46;9.48;;;8.25;;
54125;SDS011;40360;52.992;6.796;2023-07-09T02:20:12;10.90;;;8.77;;
54125;SDS011;40360;52.992;6.796;2023-07-09T02:22:39;11.93;;;9.48;;
54125;SDS011;40360;52.992;6.796;2023-07-09T02:25:05;9.63;;;8.68;;
54125;SDS011;40360;52.992;6.796;2023-07-09T02:27:32;11.10;;;8.13;;
54125;SDS011;40360;52.992;6.796;2023-07-09T02:29:58;9.40;;;8.50;;
54125;SDS011;40360;52.992;6.796;2023-07-09T02:32:26;8.98;;;8.07;;
54125;SDS011;40360;52.992;6.796;2023-07-09T02:34:52;9.90;;;8.80;;
54125;SDS011;40360;52.992;6.796;2023-07-09T02:37:20;12.20;;;11.00;;
54125;SDS011;40360;52.992;6.796;2023-07-09T02:39:47;12.38;;;10.13;;
54125;SDS011;40360;52.992;6.796;2023-07-09T02:42:13;11.32;;;10.10;;
54125;SDS011;40360;52.992;6.796;2023-07-09T02:44:41;12.30;;;11.00;;
54125;SDS011;40360;52.992;6.796;2023-07-09T02:47:07;13.13;;;10.60;;
54125;SDS011;40360;52.992;6.796;2023-07-09T02:49:35;12.95;;;9.82;;
54125;SDS011;40360;52.992;6.796;2023-07-09T02:52:04;10.13;;;8.68;;
54125;SDS011;40360;52.992;6.796;2023-07-09T02:54:37;13.93;;;8.20;;
54125;SDS011;40360;52.992;6.796;2023-07-09T02:57:02;11.05;;;8.23;;
54125;SDS011;40360;52.992;6.796;2023-07-09T02:59:28;11.27;;;8.93;;
54125;SDS011;40360;52.992;6.796;2023-07-09T03:01:55;12.02;;;8.98;;
54125;SDS011;40360;52.992;6.796;2023-07-09T03:04:21;9.85;;;8.82;;
54125;SDS011;40360;52.992;6.796;2023-07-09T03:06:48;11.00;;;8.88;;
54125;SDS011;40360;52.992;6.796;2023-07-09T03:09:14;11.73;;;9.32;;
54125;SDS011;40360;52.992;6.796;2023-07-09T03:11:40;14.73;;;9.32;;
54125;SDS011;40360;52.992;6.796;2023-07-09T03:14:05;11.02;;;8.95;;
54125;SDS011;40360;52.992;6.796;2023-07-09T03:16:33;11.57;;;8.88;;
54125;SDS011;40360;52.992;6.796;2023-07-09T03:18:59;16.88;;;9.57;;
54125;SDS011;40360;52.992;6.796;2023-07-09T03:21:26;10.60;;;8.43;;
54125;SDS011;40360;52.992;6.796;2023-07-09T03:23:53;12.13;;;9.23;;
54125;SDS011;40360;52.992;6.796;2023-07-09T03:26:19;9.27;;;8.25;;
54125;SDS011;40360;52.992;6.796;2023-07-09T03:28:45;8.75;;;7.43;;
54125;SDS011;40360;52.992;6.796;2023-07-09T03:31:11;11.52;;;8.10;;
54125;SDS011;40360;52.992;6.796;2023-07-09T03:33:37;9.38;;;8.38;;
54125;SDS011;40360;52.992;6.796;2023-07-09T03:36:02;9.85;;;8.30;;
54125;SDS011;40360;52.992;6.796;2023-07-09T03:38:29;11.73;;;9.80;;
54125;SDS011;40360;52.992;6.796;2023-07-09T03:40:56;14.45;;;9.10;;
54125;SDS011;40360;52.992;6.796;2023-07-09T03:43:22;9.18;;;8.10;;
54125;SDS011;40360;52.992;6.796;2023-07-09T03:45:48;12.00;;;8.77;;
54125;SDS011;40360;52.992;6.796;2023-07-09T03:48:15;13.73;;;9.57;;
54125;SDS011;40360;52.992;6.796;2023-07-09T03:50:43;11.23;;;8.65;;
54125;SDS011;40360;52.992;6.796;2023-07-09T03:53:10;13.43;;;8.32;;
54125;SDS011;40360;52.992;6.796;2023-07-09T03:55:38;10.27;;;8.48;;
54125;SDS011;40360;52.992;6.796;2023-07-09T03:58:04;9.65;;;8.65;;
54125;SDS011;40360;52.992;6.796;2023-07-09T04:00:33;11.73;;;8.43;;
54125;SDS011;40360;52.992;6.796;2023-07-09T04:02:59;10.95;;;9.65;;
54125;SDS011;40360;52.992;6.796;2023-07-09T04:05:25;12.20;;;10.90;;
54125;SDS011;40360;52.992;6.796;2023-07-09T04:07:51;13.15;;;10.07;;
54125;SDS011;40360;52.992;6.796;2023-07-09T04:10:17;12.60;;;10.13;;
54125;SDS011;40360;52.992;6.796;2023-07-09T04:12:43;11.93;;;10.15;;
54125;SDS011;40360;52.992;6.796;2023-07-09T04:15:09;12.80;;;10.05;;
54125;SDS011;40360;52.992;6.796;2023-07-09T04:17:37;10.48;;;8.18;;
54125;SDS011;40360;52.992;6.796;2023-07-09T04:20:03;9.80;;;8.90;;
54125;SDS011;40360;52.992;6.796;2023-07-09T04:22:32;10.20;;;8.90;;
54125;SDS011;40360;52.992;6.796;2023-07-09T04:24:59;11.00;;;8.18;;
54125;SDS011;40360;52.992;6.796;2023-07-09T04:27:25;11.90;;;9.60;;
54125;SDS011;40360;52.992;6.796;2023-07-09T04:29:52;12.23;;;9.07;;
54125;SDS011;40360;52.992;6.796;2023-07-09T04:32:19;9.57;;;8.05;;
54125;SDS011;40360;52.992;6.796;2023-07-09T04:34:46;10.80;;;8.32;;
54125;SDS011;40360;52.992;6.796;2023-07-09T04:37:12;10.40;;;9.30;;
54125;SDS011;40360;52.992;6.796;2023-07-09T04:39:39;9.82;;;8.27;;
54125;SDS011;40360;52.992;6.796;2023-07-09T04:42:06;13.85;;;8.60;;
54125;SDS011;40360;52.992;6.796;2023-07-09T04:44:36;11.43;;;9.18;;
54125;SDS011;40360;52.992;6.796;2023-07-09T04:47:01;8.55;;;7.35;;
54125;SDS011;40360;52.992;6.796;2023-07-09T04:49:31;9.98;;;8.50;;
54125;SDS011;40360;52.992;6.796;2023-07-09T04:51:57;10.02;;;8.68;;
54125;SDS011;40360;52.992;6.796;2023-07-09T04:54:24;11.35;;;8.45;;
54125;SDS011;40360;52.992;6.796;2023-07-09T04:56:50;9.02;;;8.13;;
54125;SDS011;40360;52.992;6.796;2023-07-09T04:59:16;12.13;;;9.05;;
54125;SDS011;40360;52.992;6.796;2023-07-09T05:01:45;12.75;;;9.88;;
54125;SDS011;40360;52.992;6.796;2023-07-09T05:04:11;11.00;;;8.40;;
54125;SDS011;40360;52.992;6.796;2023-07-09T05:06:36;12.20;;;9.45;;
54125;SDS011;40360;52.992;6.796;2023-07-09T05:09:03;9.30;;;8.25;;
54125;SDS011;40360;52.992;6.796;2023-07-09T05:11:29;11.63;;;8.70;;
54125;SDS011;40360;52.992;6.796;2023-07-09T05:13:56;11.52;;;8.10;;
54125;SDS011;40360;52.992;6.796;2023-07-09T05:16:21;10.35;;;7.75;;
54125;SDS011;40360;52.992;6.796;2023-07-09T05:18:51;12.43;;;8.32;;
54125;SDS011;40360;52.992;6.796;2023-07-09T05:21:18;10.15;;;8.75;;
54125;SDS011;40360;52.992;6.796;2023-07-09T05:23:43;9.52;;;8.52;;
54125;SDS011;40360;52.992;6.796;2023-07-09T05:26:09;9.73;;;7.70;;
54125;SDS011;40360;52.992;6.796;2023-07-09T05:28:36;10.38;;;8.55;;
54125;SDS011;40360;52.992;6.796;2023-07-09T05:31:01;8.60;;;7.65;;
54125;SDS011;40360;52.992;6.796;2023-07-09T05:33:27;11.77;;;8.45;;
54125;SDS011;40360;52.992;6.796;2023-07-09T05:35:52;9.75;;;7.97;;
54125;SDS011;40360;52.992;6.796;2023-07-09T05:38:18;11.07;;;8.35;;
54125;SDS011;40360;52.992;6.796;2023-07-09T05:40:44;11.55;;;8.13;;
54125;SDS011;40360;52.992;6.796;2023-07-09T06:01:54;10.55;;;9.32;;
54125;SDS011;40360;52.992;6.796;2023-07-09T06:04:19;10.95;;;9.85;;
54125;SDS011;40360;52.992;6.796;2023-07-09T06:06:45;10.20;;;9.20;;
54125;SDS011;40360;52.992;6.796;2023-07-09T06:09:11;10.45;;;9.45;;
54125;SDS011;40360;52.992;6.796;2023-07-09T06:11:36;11.32;;;9.90;;
54125;SDS011;40360;52.992;6.796;2023-07-09T06:14:02;10.38;;;9.43;;
54125;SDS011;40360;52.992;6.796;2023-07-09T06:16:27;10.88;;;9.48;;
54125;SDS011;40360;52.992;6.796;2023-07-09T06:18:54;13.13;;;9.65;;
54125;SDS011;40360;52.992;6.796;2023-07-09T06:21:20;10.35;;;9.32;;
54125;SDS011;40360;52.992;6.796;2023-07-09T06:23:46;10.93;;;9.15;;
54125;SDS011;40360;52.992;6.796;2023-07-09T06:26:12;16.08;;;9.40;;
54125;SDS011;40360;52.992;6.796;2023-07-09T06:28:38;9.13;;;8.23;;
54125;SDS011;40360;52.992;6.796;2023-07-09T06:31:03;10.35;;;9.00;;
54125;SDS011;40360;52.992;6.796;2023-07-09T06:33:29;14.70;;;9.38;;
54125;SDS011;40360;52.992;6.796;2023-07-09T06:35:59;14.63;;;10.32;;
54125;SDS011;40360;52.992;6.796;2023-07-09T06:38:30;15.70;;;11.13;;
54125;SDS011;40360;52.992;6.796;2023-07-09T06:41:15;13.10;;;10.05;;
54125;SDS011;40360;52.992;6.796;2023-07-09T06:43:45;9.88;;;8.93;;
54125;SDS011;40360;52.992;6.796;2023-07-09T06:46:27;12.32;;;9.93;;
54125;SDS011;40360;52.992;6.796;2023-07-09T06:49:34;14.05;;;10.80;;
54125;SDS011;40360;52.992;6.796;2023-07-09T06:52:09;13.30;;;10.98;;
54125;SDS011;40360;52.992;6.796;2023-07-09T06:54:43;11.93;;;9.77;;
54125;SDS011;40360;52.992;6.796;2023-07-09T06:57:11;16.02;;;11.95;;
54125;SDS011;40360;52.992;6.796;2023-07-09T06:59:43;11.75;;;10.25;;
54125;SDS011;40360;52.992;6.796;2023-07-09T07:02:09;11.77;;;10.52;;
54125;SDS011;40360;52.992;6.796;2023-07-09T07:04:34;12.95;;;10.73;;
54125;SDS011;40360;52.992;6.796;2023-07-09T07:07:00;12.77;;;10.25;;
54125;SDS011;40360;52.992;6.796;2023-07-09T07:09:26;14.13;;;10.38;;
54125;SDS011;40360;52.992;6.796;2023-07-09T07:11:52;11.60;;;10.02;;
54125;SDS011;40360;52.992;6.796;2023-07-09T07:14:18;12.18;;;10.15;;
54125;SDS011;40360;52.992;6.796;2023-07-09T07:16:49;12.65;;;9.70;;
54125;SDS011;40360;52.992;6.796;2023-07-09T07:19:15;11.73;;;9.90;;
54125;SDS011;40360;52.992;6.796;2023-07-09T07:21:41;13.07;;;10.05;;
54125;SDS011;40360;52.992;6.796;2023-07-09T07:24:07;12.30;;;10.23;;
54125;SDS011;40360;52.992;6.796;2023-07-09T07:26:32;12.55;;;9.90;;
54125;SDS011;40360;52.992;6.796;2023-07-09T07:28:58;14.05;;;9.30;;
54125;SDS011;40360;52.992;6.796;2023-07-09T07:31:24;15.00;;;9.40;;
54125;SDS011;40360;52.992;6.796;2023-07-09T07:33:50;11.20;;;8.98;;
54125;SDS011;40360;52.992;6.796;2023-07-09T07:36:16;11.27;;;9.00;;
54125;SDS011;40360;52.992;6.796;2023-07-09T07:38:42;13.02;;;8.93;;
54125;SDS011;40360;52.992;6.796;2023-07-09T07:41:08;12.18;;;8.70;;
54125;SDS011;40360;52.992;6.796;2023-07-09T07:43:48;10.55;;;8.60;;
54125;SDS011;40360;52.992;6.796;2023-07-09T07:46:14;9.57;;;8.05;;
54125;SDS011;40360;52.992;6.796;2023-07-09T07:48:40;13.93;;;9.88;;
54125;SDS011;40360;52.992;6.796;2023-07-09T07:51:05;12.15;;;8.68;;
54125;SDS011;40360;52.992;6.796;2023-07-09T07:53:32;11.65;;;8.77;;
54125;SDS011;40360;52.992;6.796;2023-07-09T07:55:58;10.35;;;8.52;;
54125;SDS011;40360;52.992;6.796;2023-07-09T07:58:26;12.13;;;8.50;;
54125;SDS011;40360;52.992;6.796;2023-07-09T08:00:55;10.95;;;7.97;;
54125;SDS011;40360;52.992;6.796;2023-07-09T08:03:23;13.77;;;9.00;;
54125;SDS011;40360;52.992;6.796;2023-07-09T08:05:54;10.70;;;8.15;;
54125;SDS011;40360;52.992;6.796;2023-07-09T08:08:20;10.00;;;7.57;;
54125;SDS011;40360;52.992;6.796;2023-07-09T08:10:46;11.27;;;8.63;;
54125;SDS011;40360;52.992;6.796;2023-07-09T08:13:12;11.30;;;8.60;;
54125;SDS011;40360;52.992;6.796;2023-07-09T08:15:38;11.95;;;7.95;;
54125;SDS011;40360;52.992;6.796;2023-07-09T08:18:04;9.40;;;8.00;;
54125;SDS011;40360;52.992;6.796;2023-07-09T08:20:31;9.23;;;8.23;;
54125;SDS011;40360;52.992;6.796;2023-07-09T08:22:58;9.80;;;8.10;;
54125;SDS011;40360;52.992;6.796;2023-07-09T08:25:24;10.70;;;8.20;;
54125;SDS011;40360;52.992;6.796;2023-07-09T08:27:50;10.38;;;7.75;;
54125;SDS011;40360;52.992;6.796;2023-07-09T08:30:15;11.23;;;8.75;;
54125;SDS011;40360;52.992;6.796;2023-07-09T08:32:42;11.88;;;8.55;;
54125;SDS011;40360;52.992;6.796;2023-07-09T08:35:10;11.88;;;8.68;;
54125;SDS011;40360;52.992;6.796;2023-07-09T08:37:37;11.18;;;8.40;;
54125;SDS011;40360;52.992;6.796;2023-07-09T08:40:04;13.18;;;8.25;;
54125;SDS011;40360;52.992;6.796;2023-07-09T08:42:33;10.73;;;8.07;;
54125;SDS011;40360;52.992;6.796;2023-07-09T08:50:41;15.43;;;8.27;;
54125;SDS011;40360;52.992;6.796;2023-07-09T08:53:33;13.68;;;8.32;;
54125;SDS011;40360;52.992;6.796;2023-07-09T08:56:07;8.38;;;7.32;;
54125;SDS011;40360;52.992;6.796;2023-07-09T08:58:34;11.30;;;8.23;;
54125;SDS011;40360;52.992;6.796;2023-07-09T09:01:03;9.77;;;7.80;;
54125;SDS011;40360;52.992;6.796;2023-07-09T09:03:34;10.02;;;7.70;;
54125;SDS011;40360;52.992;6.796;2023-07-09T09:06:11;13.20;;;8.02;;
54125;SDS011;40360;52.992;6.796;2023-07-09T09:11:34;10.30;;;8.23;;
54125;SDS011;40360;52.992;6.796;2023-07-09T09:14:05;10.18;;;7.38;;
54125;SDS011;40360;52.992;6.796;2023-07-09T09:16:38;11.27;;;8.27;;
54125;SDS011;40360;52.992;6.796;2023-07-09T09:19:10;10.23;;;7.20;;
54125;SDS011;40360;52.992;6.796;2023-07-09T09:21:46;16.33;;;8.35;;
54125;SDS011;40360;52.992;6.796;2023-07-09T09:24:20;8.35;;;7.13;;
54125;SDS011;40360;52.992;6.796;2023-07-09T09:26:52;9.38;;;7.40;;
54125;SDS011;40360;52.992;6.796;2023-07-09T09:29:23;9.50;;;7.70;;
54125;SDS011;40360;52.992;6.796;2023-07-09T09:31:50;9.77;;;7.80;;
54125;SDS011;40360;52.992;6.796;2023-07-09T09:34:21;10.65;;;7.43;;
54125;SDS011;40360;52.992;6.796;2023-07-09T09:36:49;10.57;;;7.65;;
54125;SDS011;40360;52.992;6.796;2023-07-09T09:39:16;8.63;;;7.72;;
54125;SDS011;40360;52.992;6.796;2023-07-09T09:41:43;9.93;;;7.00;;
54125;SDS011;40360;52.992;6.796;2023-07-09T09:44:20;9.95;;;7.55;;
54125;SDS011;40360;52.992;6.796;2023-07-09T09:46:49;9.35;;;6.85;;
54125;SDS011;40360;52.992;6.796;2023-07-09T09:49:18;10.65;;;7.00;;
54125;SDS011;40360;52.992;6.796;2023-07-09T09:51:45;10.07;;;7.78;;
54125;SDS011;40360;52.992;6.796;2023-07-09T09:54:20;9.63;;;6.70;;
54125;SDS011;40360;52.992;6.796;2023-07-09T09:56:49;9.30;;;6.68;;
54125;SDS011;40360;52.992;6.796;2023-07-09T09:59:18;9.98;;;7.45;;
54125;SDS011;40360;52.992;6.796;2023-07-09T10:01:46;10.38;;;6.97;;
54125;SDS011;40360;52.992;6.796;2023-07-09T10:04:18;8.45;;;6.53;;
54125;SDS011;40360;52.992;6.796;2023-07-09T10:06:50;8.05;;;6.78;;
54125;SDS011;40360;52.992;6.796;2023-07-09T10:12:38;8.73;;;6.65;;
54125;SDS011;40360;52.992;6.796;2023-07-09T10:15:23;7.57;;;6.40;;
54125;SDS011;40360;52.992;6.796;2023-07-09T10:18:14;10.85;;;6.53;;
54125;SDS011;40360;52.992;6.796;2023-07-09T10:23:31;9.68;;;7.03;;
54125;SDS011;40360;52.992;6.796;2023-07-09T10:26:29;11.02;;;7.03;;
54125;SDS011;40360;52.992;6.796;2023-07-09T10:31:36;10.80;;;7.13;;
54125;SDS011;40360;52.992;6.796;2023-07-09T10:34:25;9.05;;;7.00;;
54125;SDS011;40360;52.992;6.796;2023-07-09T10:39:50;9.00;;;6.95;;
54125;SDS011;40360;52.992;6.796;2023-07-09T10:42:28;8.05;;;7.05;;
54125;SDS011;40360;52.992;6.796;2023-07-09T10:45:07;8.48;;;6.45;;
54125;SDS011;40360;52.992;6.796;2023-07-09T10:47:47;9.40;;;6.47;;
54125;SDS011;40360;52.992;6.796;2023-07-09T10:50:22;8.95;;;7.18;;
54125;SDS011;40360;52.992;6.796;2023-07-09T10:53:07;9.02;;;6.47;;
54125;SDS011;40360;52.992;6.796;2023-07-09T10:55:50;7.55;;;6.75;;
54125;SDS011;40360;52.992;6.796;2023-07-09T10:58:31;8.48;;;6.95;;
54125;SDS011;40360;52.992;6.796;2023-07-09T11:01:02;10.70;;;7.40;;
54125;SDS011;40360;52.992;6.796;2023-07-09T11:06:00;8.73;;;6.63;;
54125;SDS011;40360;52.992;6.796;2023-07-09T11:08:33;7.15;;;6.45;;
54125;SDS011;40360;52.992;6.796;2023-07-09T11:11:03;9.23;;;5.85;;
54125;SDS011;40360;52.992;6.796;2023-07-09T11:13:38;7.95;;;6.85;;
54125;SDS011;40360;52.992;6.796;2023-07-09T11:16:29;7.80;;;6.97;;
54125;SDS011;40360;52.992;6.796;2023-07-09T11:19:02;9.85;;;6.35;;
54125;SDS011;40360;52.992;6.796;2023-07-09T11:21:31;10.30;;;6.40;;
54125;SDS011;40360;52.992;6.796;2023-07-09T11:23:58;7.72;;;6.72;;
54125;SDS011;40360;52.992;6.796;2023-07-09T11:34:02;7.82;;;6.00;;
54125;SDS011;40360;52.992;6.796;2023-07-09T11:41:55;8.35;;;5.90;;
54125;SDS011;40360;52.992;6.796;2023-07-09T11:44:25;7.07;;;5.45;;
54125;SDS011;40360;52.992;6.796;2023-07-09T11:49:56;7.22;;;5.28;;
54125;SDS011;40360;52.992;6.796;2023-07-09T11:52:35;6.32;;;5.60;;
54125;SDS011;40360;52.992;6.796;2023-07-09T11:57:53;8.07;;;5.72;;
54125;SDS011;40360;52.992;6.796;2023-07-09T12:00:20;7.32;;;5.35;;
54125;SDS011;40360;52.992;6.796;2023-07-09T12:02:46;8.88;;;5.43;;
54125;SDS011;40360;52.992;6.796;2023-07-09T12:05:12;9.43;;;6.00;;
54125;SDS011;40360;52.992;6.796;2023-07-09T12:07:39;8.73;;;5.18;;
54125;SDS011;40360;52.992;6.796;2023-07-09T12:10:13;6.82;;;5.60;;
54125;SDS011;40360;52.992;6.796;2023-07-09T12:12:47;7.75;;;5.85;;
54125;SDS011;40360;52.992;6.796;2023-07-09T12:15:21;6.38;;;5.53;;
54125;SDS011;40360;52.992;6.796;2023-07-09T12:17:54;8.68;;;5.97;;
54125;SDS011;40360;52.992;6.796;2023-07-09T12:20:21;7.35;;;5.80;;
54125;SDS011;40360;52.992;6.796;2023-07-09T12:22:47;7.03;;;6.20;;
54125;SDS011;40360;52.992;6.796;2023-07-09T12:25:26;7.53;;;5.80;;
54125;SDS011;40360;52.992;6.796;2023-07-09T12:27:54;9.13;;;5.38;;
54125;SDS011;40360;52.992;6.796;2023-07-09T12:30:19;6.28;;;5.43;;
54125;SDS011;40360;52.992;6.796;2023-07-09T12:32:46;6.80;;;5.38;;
54125;SDS011;40360;52.992;6.796;2023-07-09T12:35:15;7.88;;;5.68;;
54125;SDS011;40360;52.992;6.796;2023-07-09T12:37:42;7.20;;;5.97;;
54125;SDS011;40360;52.992;6.796;2023-07-09T12:40:30;7.20;;;5.30;;
54125;SDS011;40360;52.992;6.796;2023-07-09T12:42:56;8.10;;;5.85;;
54125;SDS011;40360;52.992;6.796;2023-07-09T12:45:22;8.10;;;5.78;;
54125;SDS011;40360;52.992;6.796;2023-07-09T12:47:49;6.35;;;5.53;;
54125;SDS011;40360;52.992;6.796;2023-07-09T12:50:20;7.20;;;5.57;;
54125;SDS011;40360;52.992;6.796;2023-07-09T12:52:54;8.10;;;5.80;;
54125;SDS011;40360;52.992;6.796;2023-07-09T12:55:23;8.00;;;5.63;;
54125;SDS011;40360;52.992;6.796;2023-07-09T12:57:51;11.18;;;6.30;;
54125;SDS011;40360;52.992;6.796;2023-07-09T13:00:20;7.75;;;6.30;;
54125;SDS011;40360;52.992;6.796;2023-07-09T13:02:50;9.20;;;6.22;;
54125;SDS011;40360;52.992;6.796;2023-07-09T13:05:20;7.95;;;6.05;;
54125;SDS011;40360;52.992;6.796;2023-07-09T13:07:52;9.55;;;6.40;;
54125;SDS011;40360;52.992;6.796;2023-07-09T13:10:24;7.53;;;5.68;;
54125;SDS011;40360;52.992;6.796;2023-07-09T13:12:53;9.38;;;6.15;;
54125;SDS011;40360;52.992;6.796;2023-07-09T13:17:56;7.90;;;5.38;;
54125;SDS011;40360;52.992;6.796;2023-07-09T13:20:22;7.57;;;6.00;;
54125;SDS011;40360;52.992;6.796;2023-07-09T13:22:48;8.98;;;5.78;;
54125;SDS011;40360;52.992;6.796;2023-07-09T13:25:13;7.47;;;5.78;;
54125;SDS011;40360;52.992;6.796;2023-07-09T13:27:39;8.60;;;5.82;;
54125;SDS011;40360;52.992;6.796;2023-07-09T13:30:05;6.70;;;5.03;;
54125;SDS011;40360;52.992;6.796;2023-07-09T13:32:31;6.93;;;5.65;;
54125;SDS011;40360;52.992;6.796;2023-07-09T13:34:57;8.13;;;5.35;;
54125;SDS011;40360;52.992;6.796;2023-07-09T13:37:22;7.50;;;5.38;;
54125;SDS011;40360;52.992;6.796;2023-07-09T13:39:48;6.82;;;5.78;;
54125;SDS011;40360;52.992;6.796;2023-07-09T13:42:14;14.05;;;6.85;;
54125;SDS011;40360;52.992;6.796;2023-07-09T13:44:42;16.10;;;7.10;;
54125;SDS011;40360;52.992;6.796;2023-07-09T13:47:17;11.63;;;7.53;;
54125;SDS011;40360;52.992;6.796;2023-07-09T13:49:44;10.50;;;6.68;;
54125;SDS011;40360;52.992;6.796;2023-07-09T13:52:19;6.32;;;5.30;;
54125;SDS011;40360;52.992;6.796;2023-07-09T13:54:48;11.32;;;6.82;;
54125;SDS011;40360;52.992;6.796;2023-07-09T13:57:18;8.98;;;5.60;;
54125;SDS011;40360;52.992;6.796;2023-07-09T13:59:46;7.38;;;6.00;;
54125;SDS011;40360;52.992;6.796;2023-07-09T14:02:20;15.88;;;8.45;;
54125;SDS011;40360;52.992;6.796;2023-07-09T14:04:56;6.13;;;5.47;;
54125;SDS011;40360;52.992;6.796;2023-07-09T14:07:27;7.82;;;5.93;;
54125;SDS011;40360;52.992;6.796;2023-07-09T14:09:59;7.30;;;5.70;;
54125;SDS011;40360;52.992;6.796;2023-07-09T14:12:25;9.60;;;5.47;;
54125;SDS011;40360;52.992;6.796;2023-07-09T14:14:53;8.00;;;5.35;;
54125;SDS011;40360;52.992;6.796;2023-07-09T14:17:23;8.25;;;5.22;;
54125;SDS011;40360;52.992;6.796;2023-07-09T14:19:50;10.18;;;4.85;;
54125;SDS011;40360;52.992;6.796;2023-07-09T14:22:28;8.77;;;5.07;;
54125;SDS011;40360;52.992;6.796;2023-07-09T14:24:57;9.43;;;5.72;;
54125;SDS011;40360;52.992;6.796;2023-07-09T14:27:24;8.52;;;5.75;;
54125;SDS011;40360;52.992;6.796;2023-07-09T14:29:49;6.80;;;5.07;;
54125;SDS011;40360;52.992;6.796;2023-07-09T14:32:36;6.07;;;5.43;;
54125;SDS011;40360;52.992;6.796;2023-07-09T14:35:05;6.82;;;4.95;;
54125;SDS011;40360;52.992;6.796;2023-07-09T14:37:45;9.90;;;5.32;;
54125;SDS011;40360;52.992;6.796;2023-07-09T14:40:13;6.25;;;5.63;;
54125;SDS011;40360;52.992;6.796;2023-07-09T14:42:39;6.00;;;5.40;;
54125;SDS011;40360;52.992;6.796;2023-07-09T14:45:15;8.68;;;5.18;;
54125;SDS011;40360;52.992;6.796;2023-07-09T14:47:41;7.38;;;5.32;;
54125;SDS011;40360;52.992;6.796;2023-07-09T14:50:07;7.13;;;5.00;;
54125;SDS011;40360;52.992;6.796;2023-07-09T14:52:34;7.78;;;5.60;;
54125;SDS011;40360;52.992;6.796;2023-07-09T14:55:00;8.75;;;5.32;;
54125;SDS011;40360;52.992;6.796;2023-07-09T14:57:26;8.88;;;5.63;;
54125;SDS011;40360;52.992;6.796;2023-07-09T14:59:55;6.32;;;4.75;;
54125;SDS011;40360;52.992;6.796;2023-07-09T15:02:34;7.18;;;5.18;;
54125;SDS011;40360;52.992;6.796;2023-07-09T15:05:03;7.43;;;5.13;;
54125;SDS011;40360;52.992;6.796;2023-07-09T15:07:31;11.40;;;5.53;;
54125;SDS011;40360;52.992;6.796;2023-07-09T15:09:57;7.95;;;5.10;;
54125;SDS011;40360;52.992;6.796;2023-07-09T15:12:27;9.00;;;5.30;;
54125;SDS011;40360;52.992;6.796;2023-07-09T15:15:01;9.77;;;5.80;;
54125;SDS011;40360;52.992;6.796;2023-07-09T15:17:46;6.65;;;5.40;;
54125;SDS011;40360;52.992;6.796;2023-07-09T15:20:16;8.18;;;5.07;;
54125;SDS011;40360;52.992;6.796;2023-07-09T15:25:23;11.35;;;5.85;;
54125;SDS011;40360;52.992;6.796;2023-07-09T15:27:51;9.65;;;5.55;;
54125;SDS011;40360;52.992;6.796;2023-07-09T15:30:24;7.60;;;4.90;;
54125;SDS011;40360;52.992;6.796;2023-07-09T15:32:51;7.40;;;4.88;;
54125;SDS011;40360;52.992;6.796;2023-07-09T15:35:19;13.02;;;5.68;;
54125;SDS011;40360;52.992;6.796;2023-07-09T15:37:45;22.67;;;6.93;;
54125;SDS011;40360;52.992;6.796;2023-07-09T15:40:27;22.85;;;7.88;;
54125;SDS011;40360;52.992;6.796;2023-07-09T15:42:58;18.48;;;6.72;;
54125;SDS011;40360;52.992;6.796;2023-07-09T15:45:29;15.07;;;6.57;;
54125;SDS011;40360;52.992;6.796;2023-07-09T15:47:54;14.48;;;6.60;;
54125;SDS011;40360;52.992;6.796;2023-07-09T15:50:25;14.10;;;6.03;;
54125;SDS011;40360;52.992;6.796;2023-07-09T15:52:52;13.75;;;5.22;;
54125;SDS011;40360;52.992;6.796;2023-07-09T15:55:20;6.25;;;4.70;;
54125;SDS011;40360;52.992;6.796;2023-07-09T15:57:48;8.90;;;5.45;;
54125;SDS011;40360;52.992;6.796;2023-07-09T16:00:18;12.27;;;6.30;;